sensor_id;sensor_type;location;lat;lon;timestamp;P1;durP1;ratioP1;P2;durP2;ratioP2
19446;SDS011;9862;49.462;11.054;2023-11-19T00:00:53;3.00;;;2.58;;
19446;SDS011;9862;49.462;11.054;2023-11-19T00:03:19;2.80;;;2.50;;
19446;SDS011;9862;49.462;11.054;2023-11-19T00:05:46;3.30;;;2.55;;
19446;SDS011;9862;49.462;11.054;2023-11-19T00:08:15;4.43;;;2.58;;
19446;SDS011;9862;49.462;11.054;2023-11-19T00:10:42;2.85;;;2.30;;
19446;SDS011;9862;49.462;11.054;2023-11-19T00:13:09;3.65;;;2.88;;
19446;SDS011;9862;49.462;11.054;2023-11-19T00:15:37;3.92;;;2.38;;
19446;SDS011;9862;49.462;11.054;2023-11-19T00:18:04;3.35;;;2.42;;
19446;SDS011;9862;49.462;11.054;2023-11-19T00:20:31;5.05;;;2.80;;
19446;SDS011;9862;49.462;11.054;2023-11-19T00:22:59;2.95;;;2.42;;
19446;SDS011;9862;49.462;11.054;2023-11-19T00:25:29;2.90;;;2.45;;
19446;SDS011;9862;49.462;11.054;2023-11-19T00:27:57;3.47;;;2.50;;
19446;SDS011;9862;49.462;11.054;2023-11-19T00:30:26;3.42;;;2.55;;
19446;SDS011;9862;49.462;11.054;2023-11-19T00:32:53;5.80;;;2.58;;
19446;SDS011;9862;49.462;11.054;2023-11-19T00:35:20;3.42;;;2.65;;
19446;SDS011;9862;49.462;11.054;2023-11-19T00:37:47;3.65;;;2.85;;
19446;SDS011;9862;49.462;11.054;2023-11-19T00:40:14;2.95;;;2.65;;
19446;SDS011;9862;49.462;11.054;2023-11-19T00:42:44;4.15;;;2.75;;
19446;SDS011;9862;49.462;11.054;2023-11-19T00:45:11;2.60;;;2.30;;
19446;SDS011;9862;49.462;11.054;2023-11-19T00:47:38;2.83;;;2.53;;
19446;SDS011;9862;49.462;11.054;2023-11-19T00:50:05;3.30;;;2.85;;
19446;SDS011;9862;49.462;11.054;2023-11-19T00:52:34;3.15;;;2.85;;
19446;SDS011;9862;49.462;11.054;2023-11-19T00:55:02;3.63;;;2.70;;
19446;SDS011;9862;49.462;11.054;2023-11-19T00:57:29;2.78;;;2.58;;
19446;SDS011;9862;49.462;11.054;2023-11-19T01:00:00;3.78;;;3.08;;
19446;SDS011;9862;49.462;11.054;2023-11-19T01:02:28;2.88;;;2.30;;
19446;SDS011;9862;49.462;11.054;2023-11-19T01:04:54;3.20;;;2.90;;
19446;SDS011;9862;49.462;11.054;2023-11-19T01:07:22;2.80;;;2.50;;
19446;SDS011;9862;49.462;11.054;2023-11-19T01:09:50;3.72;;;2.72;;
19446;SDS011;9862;49.462;11.054;2023-11-19T01:12:18;3.58;;;2.83;;
19446;SDS011;9862;49.462;11.054;2023-11-19T01:14:44;3.30;;;2.80;;
19446;SDS011;9862;49.462;11.054;2023-11-19T01:17:13;3.08;;;2.65;;
19446;SDS011;9862;49.462;11.054;2023-11-19T01:19:39;5.30;;;2.42;;
19446;SDS011;9862;49.462;11.054;2023-11-19T01:22:06;3.80;;;3.00;;
19446;SDS011;9862;49.462;11.054;2023-11-19T01:24:33;3.83;;;2.92;;
19446;SDS011;9862;49.462;11.054;2023-11-19T01:27:00;2.70;;;2.40;;
19446;SDS011;9862;49.462;11.054;2023-11-19T01:29:27;3.08;;;2.40;;
19446;SDS011;9862;49.462;11.054;2023-11-19T01:31:54;3.38;;;3.05;;
19446;SDS011;9862;49.462;11.054;2023-11-19T01:34:22;2.78;;;2.15;;
19446;SDS011;9862;49.462;11.054;2023-11-19T01:36:49;4.88;;;2.60;;
19446;SDS011;9862;49.462;11.054;2023-11-19T01:39:16;3.13;;;2.40;;
19446;SDS011;9862;49.462;11.054;2023-11-19T01:41:43;3.50;;;2.65;;
19446;SDS011;9862;49.462;11.054;2023-11-19T01:44:10;2.40;;;2.20;;
19446;SDS011;9862;49.462;11.054;2023-11-19T01:46:40;5.68;;;2.80;;
19446;SDS011;9862;49.462;11.054;2023-11-19T01:49:08;3.05;;;2.60;;
19446;SDS011;9862;49.462;11.054;2023-11-19T01:51:38;3.00;;;2.45;;
19446;SDS011;9862;49.462;11.054;2023-11-19T01:54:06;4.10;;;2.78;;
19446;SDS011;9862;49.462;11.054;2023-11-19T01:56:34;3.00;;;2.47;;
19446;SDS011;9862;49.462;11.054;2023-11-19T01:59:02;3.95;;;2.83;;
19446;SDS011;9862;49.462;11.054;2023-11-19T02:01:29;2.85;;;2.20;;
19446;SDS011;9862;49.462;11.054;2023-11-19T02:03:57;2.78;;;2.33;;
19446;SDS011;9862;49.462;11.054;2023-11-19T02:06:25;2.97;;;2.67;;
19446;SDS011;9862;49.462;11.054;2023-11-19T02:08:55;3.60;;;2.88;;
19446;SDS011;9862;49.462;11.054;2023-11-19T02:11:23;3.15;;;2.70;;
19446;SDS011;9862;49.462;11.054;2023-11-19T02:13:54;3.35;;;2.85;;
19446;SDS011;9862;49.462;11.054;2023-11-19T02:16:21;4.22;;;2.72;;
19446;SDS011;9862;49.462;11.054;2023-11-19T02:18:48;2.95;;;2.65;;
19446;SDS011;9862;49.462;11.054;2023-11-19T02:21:16;3.08;;;2.78;;
19446;SDS011;9862;49.462;11.054;2023-11-19T02:23:43;3.03;;;2.60;;
19446;SDS011;9862;49.462;11.054;2023-11-19T02:26:14;4.10;;;2.60;;
19446;SDS011;9862;49.462;11.054;2023-11-19T02:28:45;4.22;;;3.15;;
19446;SDS011;9862;49.462;11.054;2023-11-19T02:31:14;3.75;;;3.00;;
19446;SDS011;9862;49.462;11.054;2023-11-19T02:33:41;4.50;;;2.90;;
19446;SDS011;9862;49.462;11.054;2023-11-19T02:36:09;3.05;;;2.70;;
19446;SDS011;9862;49.462;11.054;2023-11-19T02:38:36;3.67;;;3.20;;
19446;SDS011;9862;49.462;11.054;2023-11-19T02:41:04;4.35;;;2.88;;
19446;SDS011;9862;49.462;11.054;2023-11-19T02:43:32;3.78;;;2.97;;
19446;SDS011;9862;49.462;11.054;2023-11-19T02:46:01;4.78;;;2.63;;
19446;SDS011;9862;49.462;11.054;2023-11-19T02:48:30;2.72;;;2.45;;
19446;SDS011;9862;49.462;11.054;2023-11-19T02:50:57;3.35;;;3.03;;
19446;SDS011;9862;49.462;11.054;2023-11-19T02:53:24;3.35;;;2.80;;
19446;SDS011;9862;49.462;11.054;2023-11-19T02:55:52;4.00;;;3.10;;
19446;SDS011;9862;49.462;11.054;2023-11-19T02:58:26;3.45;;;3.15;;
19446;SDS011;9862;49.462;11.054;2023-11-19T03:00:54;3.28;;;2.70;;
19446;SDS011;9862;49.462;11.054;2023-11-19T03:03:24;4.13;;;3.17;;
19446;SDS011;9862;49.462;11.054;2023-11-19T03:05:56;3.83;;;3.05;;
19446;SDS011;9862;49.462;11.054;2023-11-19T03:08:23;4.30;;;3.17;;
19446;SDS011;9862;49.462;11.054;2023-11-19T03:10:50;4.57;;;3.53;;
19446;SDS011;9862;49.462;11.054;2023-11-19T03:13:17;4.38;;;3.45;;
19446;SDS011;9862;49.462;11.054;2023-11-19T03:15:43;3.70;;;3.30;;
19446;SDS011;9862;49.462;11.054;2023-11-19T03:18:12;4.07;;;3.60;;
19446;SDS011;9862;49.462;11.054;2023-11-19T03:20:40;4.82;;;3.30;;
19446;SDS011;9862;49.462;11.054;2023-11-19T03:23:08;3.60;;;3.25;;
19446;SDS011;9862;49.462;11.054;2023-11-19T03:25:36;4.00;;;3.53;;
19446;SDS011;9862;49.462;11.054;2023-11-19T03:28:04;5.55;;;3.67;;
19446;SDS011;9862;49.462;11.054;2023-11-19T03:30:33;5.05;;;3.88;;
19446;SDS011;9862;49.462;11.054;2023-11-19T03:33:02;4.18;;;3.33;;
19446;SDS011;9862;49.462;11.054;2023-11-19T03:35:30;4.75;;;3.72;;
19446;SDS011;9862;49.462;11.054;2023-11-19T03:38:02;4.97;;;3.95;;
19446;SDS011;9862;49.462;11.054;2023-11-19T03:40:31;7.30;;;4.15;;
19446;SDS011;9862;49.462;11.054;2023-11-19T03:42:58;6.90;;;4.47;;
19446;SDS011;9862;49.462;11.054;2023-11-19T03:45:26;5.47;;;3.92;;
19446;SDS011;9862;49.462;11.054;2023-11-19T03:47:53;4.88;;;3.65;;
19446;SDS011;9862;49.462;11.054;2023-11-19T03:50:19;4.90;;;3.50;;
19446;SDS011;9862;49.462;11.054;2023-11-19T03:52:46;5.35;;;3.42;;
19446;SDS011;9862;49.462;11.054;2023-11-19T03:55:14;3.88;;;3.28;;
19446;SDS011;9862;49.462;11.054;2023-11-19T03:57:41;4.53;;;3.42;;
19446;SDS011;9862;49.462;11.054;2023-11-19T04:00:08;4.60;;;3.83;;
19446;SDS011;9862;49.462;11.054;2023-11-19T04:02:39;5.68;;;3.60;;
19446;SDS011;9862;49.462;11.054;2023-11-19T04:05:06;5.32;;;4.13;;
19446;SDS011;9862;49.462;11.054;2023-11-19T04:07:35;5.13;;;4.28;;
19446;SDS011;9862;49.462;11.054;2023-11-19T04:10:01;5.43;;;4.25;;
19446;SDS011;9862;49.462;11.054;2023-11-19T04:12:30;5.78;;;3.97;;
19446;SDS011;9862;49.462;11.054;2023-11-19T04:14:57;5.45;;;4.00;;
19446;SDS011;9862;49.462;11.054;2023-11-19T04:17:24;5.28;;;4.20;;
19446;SDS011;9862;49.462;11.054;2023-11-19T04:19:51;7.53;;;4.50;;
19446;SDS011;9862;49.462;11.054;2023-11-19T04:22:33;6.35;;;4.20;;
19446;SDS011;9862;49.462;11.054;2023-11-19T04:25:00;6.70;;;4.03;;
19446;SDS011;9862;49.462;11.054;2023-11-19T04:27:27;5.85;;;4.28;;
19446;SDS011;9862;49.462;11.054;2023-11-19T04:29:54;6.50;;;4.60;;
19446;SDS011;9862;49.462;11.054;2023-11-19T04:32:20;5.20;;;4.03;;
19446;SDS011;9862;49.462;11.054;2023-11-19T04:34:48;5.55;;;4.20;;
19446;SDS011;9862;49.462;11.054;2023-11-19T04:37:14;5.90;;;4.35;;
19446;SDS011;9862;49.462;11.054;2023-11-19T04:39:42;5.60;;;4.75;;
19446;SDS011;9862;49.462;11.054;2023-11-19T04:42:10;6.50;;;4.75;;
19446;SDS011;9862;49.462;11.054;2023-11-19T04:44:38;5.78;;;4.65;;
19446;SDS011;9862;49.462;11.054;2023-11-19T04:47:06;8.38;;;5.10;;
19446;SDS011;9862;49.462;11.054;2023-11-19T04:49:33;5.35;;;4.22;;
19446;SDS011;9862;49.462;11.054;2023-11-19T04:51:59;6.82;;;4.68;;
19446;SDS011;9862;49.462;11.054;2023-11-19T04:54:28;6.57;;;4.80;;
19446;SDS011;9862;49.462;11.054;2023-11-19T04:56:56;7.28;;;5.57;;
19446;SDS011;9862;49.462;11.054;2023-11-19T04:59:22;7.63;;;4.88;;
19446;SDS011;9862;49.462;11.054;2023-11-19T05:01:49;5.82;;;4.25;;
19446;SDS011;9862;49.462;11.054;2023-11-19T05:04:16;6.45;;;4.70;;
19446;SDS011;9862;49.462;11.054;2023-11-19T05:06:44;5.82;;;4.65;;
19446;SDS011;9862;49.462;11.054;2023-11-19T05:09:11;8.60;;;4.78;;
19446;SDS011;9862;49.462;11.054;2023-11-19T05:11:39;6.18;;;4.40;;
19446;SDS011;9862;49.462;11.054;2023-11-19T05:14:07;5.85;;;4.75;;
19446;SDS011;9862;49.462;11.054;2023-11-19T05:16:34;6.78;;;4.97;;
19446;SDS011;9862;49.462;11.054;2023-11-19T05:19:01;7.80;;;5.10;;
19446;SDS011;9862;49.462;11.054;2023-11-19T05:21:29;17.80;;;10.55;;
19446;SDS011;9862;49.462;11.054;2023-11-19T05:23:55;22.02;;;12.93;;
19446;SDS011;9862;49.462;11.054;2023-11-19T05:26:23;20.42;;;12.40;;
19446;SDS011;9862;49.462;11.054;2023-11-19T05:28:50;17.95;;;10.82;;
19446;SDS011;9862;49.462;11.054;2023-11-19T05:31:19;10.05;;;7.15;;
19446;SDS011;9862;49.462;11.054;2023-11-19T05:33:46;16.90;;;9.50;;
19446;SDS011;9862;49.462;11.054;2023-11-19T05:36:13;25.95;;;15.45;;
19446;SDS011;9862;49.462;11.054;2023-11-19T05:38:39;30.17;;;17.40;;
19446;SDS011;9862;49.462;11.054;2023-11-19T05:41:06;27.05;;;16.30;;
19446;SDS011;9862;49.462;11.054;2023-11-19T05:43:34;14.63;;;10.00;;
19446;SDS011;9862;49.462;11.054;2023-11-19T05:46:01;14.18;;;9.02;;
19446;SDS011;9862;49.462;11.054;2023-11-19T05:48:30;26.10;;;15.57;;
19446;SDS011;9862;49.462;11.054;2023-11-19T05:50:57;23.58;;;13.70;;
19446;SDS011;9862;49.462;11.054;2023-11-19T05:53:24;22.02;;;13.93;;
19446;SDS011;9862;49.462;11.054;2023-11-19T05:55:51;11.38;;;8.32;;
19446;SDS011;9862;49.462;11.054;2023-11-19T05:58:22;10.52;;;7.80;;
19446;SDS011;9862;49.462;11.054;2023-11-19T06:00:51;7.90;;;6.25;;
19446;SDS011;9862;49.462;11.054;2023-11-19T06:03:18;7.00;;;5.35;;
19446;SDS011;9862;49.462;11.054;2023-11-19T06:05:50;6.32;;;5.10;;
19446;SDS011;9862;49.462;11.054;2023-11-19T06:08:16;5.82;;;5.03;;
19446;SDS011;9862;49.462;11.054;2023-11-19T06:10:46;9.20;;;4.80;;
19446;SDS011;9862;49.462;11.054;2023-11-19T06:13:15;8.27;;;5.93;;
19446;SDS011;9862;49.462;11.054;2023-11-19T06:15:43;14.25;;;8.95;;
19446;SDS011;9862;49.462;11.054;2023-11-19T06:18:10;9.50;;;5.93;;
19446;SDS011;9862;49.462;11.054;2023-11-19T06:20:38;13.57;;;8.20;;
19446;SDS011;9862;49.462;11.054;2023-11-19T06:23:07;18.30;;;10.93;;
19446;SDS011;9862;49.462;11.054;2023-11-19T06:25:34;12.77;;;8.30;;
19446;SDS011;9862;49.462;11.054;2023-11-19T06:28:00;35.33;;;19.60;;
19446;SDS011;9862;49.462;11.054;2023-11-19T06:30:27;16.75;;;10.35;;
19446;SDS011;9862;49.462;11.054;2023-11-19T06:32:57;9.55;;;6.35;;
19446;SDS011;9862;49.462;11.054;2023-11-19T06:35:23;8.13;;;5.30;;
19446;SDS011;9862;49.462;11.054;2023-11-19T06:37:51;6.18;;;4.28;;
19446;SDS011;9862;49.462;11.054;2023-11-19T06:40:19;5.25;;;4.15;;
19446;SDS011;9862;49.462;11.054;2023-11-19T06:42:46;20.65;;;12.82;;
19446;SDS011;9862;49.462;11.054;2023-11-19T06:45:13;11.20;;;7.95;;
19446;SDS011;9862;49.462;11.054;2023-11-19T06:47:39;12.02;;;8.00;;
19446;SDS011;9862;49.462;11.054;2023-11-19T06:50:07;13.38;;;7.95;;
19446;SDS011;9862;49.462;11.054;2023-11-19T06:52:34;12.05;;;6.75;;
19446;SDS011;9862;49.462;11.054;2023-11-19T06:55:03;8.80;;;5.85;;
19446;SDS011;9862;49.462;11.054;2023-11-19T06:57:33;10.60;;;6.47;;
19446;SDS011;9862;49.462;11.054;2023-11-19T07:00:00;17.40;;;9.75;;
19446;SDS011;9862;49.462;11.054;2023-11-19T07:02:27;15.57;;;9.25;;
19446;SDS011;9862;49.462;11.054;2023-11-19T07:04:54;15.15;;;7.95;;
19446;SDS011;9862;49.462;11.054;2023-11-19T07:07:22;11.32;;;6.28;;
19446;SDS011;9862;49.462;11.054;2023-11-19T07:09:49;6.05;;;4.40;;
19446;SDS011;9862;49.462;11.054;2023-11-19T07:12:16;12.70;;;7.45;;
19446;SDS011;9862;49.462;11.054;2023-11-19T07:14:46;11.05;;;7.15;;
19446;SDS011;9862;49.462;11.054;2023-11-19T07:17:12;12.57;;;8.30;;
19446;SDS011;9862;49.462;11.054;2023-11-19T07:19:41;11.13;;;5.78;;
19446;SDS011;9862;49.462;11.054;2023-11-19T07:22:10;8.82;;;4.07;;
19446;SDS011;9862;49.462;11.054;2023-11-19T07:24:38;6.43;;;5.35;;
19446;SDS011;9862;49.462;11.054;2023-11-19T07:27:07;5.70;;;4.03;;
19446;SDS011;9862;49.462;11.054;2023-11-19T07:29:34;4.07;;;2.20;;
19446;SDS011;9862;49.462;11.054;2023-11-19T07:32:03;2.80;;;1.80;;
19446;SDS011;9862;49.462;11.054;2023-11-19T07:34:30;3.40;;;2.40;;
19446;SDS011;9862;49.462;11.054;2023-11-19T07:36:57;2.40;;;1.90;;
19446;SDS011;9862;49.462;11.054;2023-11-19T07:39:28;2.33;;;1.73;;
19446;SDS011;9862;49.462;11.054;2023-11-19T07:41:55;1.45;;;1.27;;
19446;SDS011;9862;49.462;11.054;2023-11-19T07:44:24;2.85;;;1.17;;
19446;SDS011;9862;49.462;11.054;2023-11-19T07:46:51;1.88;;;0.90;;
19446;SDS011;9862;49.462;11.054;2023-11-19T07:49:19;1.42;;;1.08;;
19446;SDS011;9862;49.462;11.054;2023-11-19T07:51:47;2.03;;;1.42;;
19446;SDS011;9862;49.462;11.054;2023-11-19T07:54:14;2.38;;;1.30;;
19446;SDS011;9862;49.462;11.054;2023-11-19T07:56:41;1.20;;;1.10;;
19446;SDS011;9862;49.462;11.054;2023-11-19T07:59:08;1.58;;;1.48;;
19446;SDS011;9862;49.462;11.054;2023-11-19T08:01:35;2.15;;;1.35;;
19446;SDS011;9862;49.462;11.054;2023-11-19T08:04:02;2.45;;;1.10;;
19446;SDS011;9862;49.462;11.054;2023-11-19T08:06:31;2.03;;;1.50;;
19446;SDS011;9862;49.462;11.054;2023-11-19T08:08:58;2.38;;;1.27;;
19446;SDS011;9862;49.462;11.054;2023-11-19T08:11:25;1.30;;;1.00;;
19446;SDS011;9862;49.462;11.054;2023-11-19T08:13:52;1.85;;;1.00;;
19446;SDS011;9862;49.462;11.054;2023-11-19T08:16:18;2.50;;;0.75;;
19446;SDS011;9862;49.462;11.054;2023-11-19T08:18:45;0.85;;;0.70;;
19446;SDS011;9862;49.462;11.054;2023-11-19T08:21:12;0.60;;;0.60;;
19446;SDS011;9862;49.462;11.054;2023-11-19T08:23:41;1.38;;;0.70;;
19446;SDS011;9862;49.462;11.054;2023-11-19T08:26:08;0.80;;;0.70;;
19446;SDS011;9862;49.462;11.054;2023-11-19T08:28:34;1.50;;;1.10;;
19446;SDS011;9862;49.462;11.054;2023-11-19T08:31:01;1.00;;;0.88;;
19446;SDS011;9862;49.462;11.054;2023-11-19T08:33:30;0.90;;;0.80;;
19446;SDS011;9862;49.462;11.054;2023-11-19T08:35:57;1.13;;;0.80;;
19446;SDS011;9862;49.462;11.054;2023-11-19T08:38:24;1.35;;;0.93;;
19446;SDS011;9862;49.462;11.054;2023-11-19T08:40:54;0.80;;;0.80;;
19446;SDS011;9862;49.462;11.054;2023-11-19T08:43:25;1.45;;;0.80;;
19446;SDS011;9862;49.462;11.054;2023-11-19T08:45:52;2.85;;;0.98;;
19446;SDS011;9862;49.462;11.054;2023-11-19T08:48:19;1.33;;;0.80;;
19446;SDS011;9862;49.462;11.054;2023-11-19T08:50:47;2.35;;;1.23;;
19446;SDS011;9862;49.462;11.054;2023-11-19T08:53:14;1.30;;;1.20;;
19446;SDS011;9862;49.462;11.054;2023-11-19T08:55:40;0.90;;;0.90;;
19446;SDS011;9862;49.462;11.054;2023-11-19T08:58:08;1.73;;;1.60;;
19446;SDS011;9862;49.462;11.054;2023-11-19T09:00:35;1.95;;;1.05;;
19446;SDS011;9862;49.462;11.054;2023-11-19T09:03:02;1.35;;;1.05;;
19446;SDS011;9862;49.462;11.054;2023-11-19T09:05:29;2.35;;;1.13;;
19446;SDS011;9862;49.462;11.054;2023-11-19T09:07:56;2.25;;;1.60;;
19446;SDS011;9862;49.462;11.054;2023-11-19T09:10:23;0.82;;;0.82;;
19446;SDS011;9862;49.462;11.054;2023-11-19T09:12:50;2.85;;;1.23;;
19446;SDS011;9862;49.462;11.054;2023-11-19T09:15:18;1.80;;;1.20;;
19446;SDS011;9862;49.462;11.054;2023-11-19T09:17:45;1.08;;;0.98;;
19446;SDS011;9862;49.462;11.054;2023-11-19T09:20:12;2.67;;;0.90;;
19446;SDS011;9862;49.462;11.054;2023-11-19T09:22:40;2.92;;;0.80;;
19446;SDS011;9862;49.462;11.054;2023-11-19T09:25:07;2.33;;;1.20;;
19446;SDS011;9862;49.462;11.054;2023-11-19T09:27:35;3.00;;;0.93;;
19446;SDS011;9862;49.462;11.054;2023-11-19T09:30:02;4.00;;;0.93;;
19446;SDS011;9862;49.462;11.054;2023-11-19T09:32:30;1.92;;;0.90;;
19446;SDS011;9862;49.462;11.054;2023-11-19T09:34:57;2.50;;;1.05;;
19446;SDS011;9862;49.462;11.054;2023-11-19T09:37:24;1.30;;;0.80;;
19446;SDS011;9862;49.462;11.054;2023-11-19T09:39:51;1.10;;;0.68;;
19446;SDS011;9862;49.462;11.054;2023-11-19T09:42:19;2.35;;;0.82;;
19446;SDS011;9862;49.462;11.054;2023-11-19T09:44:46;2.25;;;1.30;;
19446;SDS011;9862;49.462;11.054;2023-11-19T09:47:16;2.65;;;0.90;;
19446;SDS011;9862;49.462;11.054;2023-11-19T09:49:46;2.25;;;0.60;;
19446;SDS011;9862;49.462;11.054;2023-11-19T09:52:15;2.03;;;1.20;;
19446;SDS011;9862;49.462;11.054;2023-11-19T09:54:41;1.85;;;0.95;;
19446;SDS011;9862;49.462;11.054;2023-11-19T09:57:08;4.28;;;1.00;;
19446;SDS011;9862;49.462;11.054;2023-11-19T09:59:37;1.00;;;0.80;;
19446;SDS011;9862;49.462;11.054;2023-11-19T10:02:06;1.50;;;0.80;;
19446;SDS011;9862;49.462;11.054;2023-11-19T10:04:33;1.02;;;0.90;;
19446;SDS011;9862;49.462;11.054;2023-11-19T10:07:04;1.10;;;0.82;;
19446;SDS011;9862;49.462;11.054;2023-11-19T10:09:30;1.35;;;1.00;;
19446;SDS011;9862;49.462;11.054;2023-11-19T10:11:57;1.45;;;0.70;;
19446;SDS011;9862;49.462;11.054;2023-11-19T10:14:24;1.27;;;0.70;;
19446;SDS011;9862;49.462;11.054;2023-11-19T10:16:51;3.65;;;0.60;;
19446;SDS011;9862;49.462;11.054;2023-11-19T10:19:18;1.65;;;0.80;;
19446;SDS011;9862;49.462;11.054;2023-11-19T10:21:46;2.80;;;0.95;;
19446;SDS011;9862;49.462;11.054;2023-11-19T10:24:15;5.45;;;1.45;;
19446;SDS011;9862;49.462;11.054;2023-11-19T10:26:42;1.40;;;0.70;;
19446;SDS011;9862;49.462;11.054;2023-11-19T10:29:12;3.70;;;0.90;;
19446;SDS011;9862;49.462;11.054;2023-11-19T10:31:40;2.25;;;1.08;;
19446;SDS011;9862;49.462;11.054;2023-11-19T10:34:15;2.28;;;1.25;;
19446;SDS011;9862;49.462;11.054;2023-11-19T10:36:53;7.20;;;1.85;;
19446;SDS011;9862;49.462;11.054;2023-11-19T10:39:22;2.30;;;0.88;;
19446;SDS011;9862;49.462;11.054;2023-11-19T10:41:49;1.27;;;0.75;;
19446;SDS011;9862;49.462;11.054;2023-11-19T10:44:30;1.17;;;0.75;;
19446;SDS011;9862;49.462;11.054;2023-11-19T10:47:01;4.05;;;1.02;;
19446;SDS011;9862;49.462;11.054;2023-11-19T10:49:27;3.05;;;1.00;;
19446;SDS011;9862;49.462;11.054;2023-11-19T10:51:54;1.20;;;0.80;;
19446;SDS011;9862;49.462;11.054;2023-11-19T10:54:24;1.73;;;0.68;;
19446;SDS011;9862;49.462;11.054;2023-11-19T10:56:54;1.10;;;0.88;;
19446;SDS011;9862;49.462;11.054;2023-11-19T10:59:25;1.20;;;0.98;;
19446;SDS011;9862;49.462;11.054;2023-11-19T11:01:54;1.17;;;0.75;;
19446;SDS011;9862;49.462;11.054;2023-11-19T11:04:23;0.60;;;0.50;;
19446;SDS011;9862;49.462;11.054;2023-11-19T11:06:52;1.05;;;0.90;;
19446;SDS011;9862;49.462;11.054;2023-11-19T11:09:20;1.90;;;0.70;;
19446;SDS011;9862;49.462;11.054;2023-11-19T11:11:50;1.33;;;0.75;;
19446;SDS011;9862;49.462;11.054;2023-11-19T11:14:19;3.45;;;0.90;;
19446;SDS011;9862;49.462;11.054;2023-11-19T11:16:48;2.20;;;1.15;;
19446;SDS011;9862;49.462;11.054;2023-11-19T11:19:15;1.10;;;0.88;;
19446;SDS011;9862;49.462;11.054;2023-11-19T11:21:44;1.92;;;0.77;;
19446;SDS011;9862;49.462;11.054;2023-11-19T11:24:21;2.17;;;0.70;;
19446;SDS011;9862;49.462;11.054;2023-11-19T11:27:06;3.47;;;0.80;;
19446;SDS011;9862;49.462;11.054;2023-11-19T11:29:56;1.90;;;0.95;;
19446;SDS011;9862;49.462;11.054;2023-11-19T11:32:33;2.35;;;0.90;;
19446;SDS011;9862;49.462;11.054;2023-11-19T11:35:13;1.42;;;0.70;;
19446;SDS011;9862;49.462;11.054;2023-11-19T11:37:53;3.20;;;1.00;;
19446;SDS011;9862;49.462;11.054;2023-11-19T11:40:26;2.05;;;0.90;;
19446;SDS011;9862;49.462;11.054;2023-11-19T11:42:55;1.85;;;0.90;;
19446;SDS011;9862;49.462;11.054;2023-11-19T11:45:34;4.22;;;1.00;;
19446;SDS011;9862;49.462;11.054;2023-11-19T11:48:08;3.90;;;0.85;;
19446;SDS011;9862;49.462;11.054;2023-11-19T11:50:47;1.27;;;1.00;;
19446;SDS011;9862;49.462;11.054;2023-11-19T11:53:16;5.43;;;1.48;;
19446;SDS011;9862;49.462;11.054;2023-11-19T11:55:53;1.15;;;0.93;;
19446;SDS011;9862;49.462;11.054;2023-11-19T11:58:27;2.25;;;1.35;;
19446;SDS011;9862;49.462;11.054;2023-11-19T12:00:57;3.13;;;0.80;;
19446;SDS011;9862;49.462;11.054;2023-11-19T12:03:28;3.80;;;1.00;;
19446;SDS011;9862;49.462;11.054;2023-11-19T12:05:56;1.27;;;0.68;;
19446;SDS011;9862;49.462;11.054;2023-11-19T12:08:25;2.78;;;0.98;;
19446;SDS011;9862;49.462;11.054;2023-11-19T12:10:56;1.52;;;1.20;;
19446;SDS011;9862;49.462;11.054;2023-11-19T12:13:47;2.80;;;1.15;;
19446;SDS011;9862;49.462;11.054;2023-11-19T12:16:21;3.72;;;1.10;;
19446;SDS011;9862;49.462;11.054;2023-11-19T12:18:48;3.65;;;1.20;;
19446;SDS011;9862;49.462;11.054;2023-11-19T12:21:29;2.45;;;1.10;;
19446;SDS011;9862;49.462;11.054;2023-11-19T12:23:57;3.00;;;1.30;;
19446;SDS011;9862;49.462;11.054;2023-11-19T12:26:38;4.55;;;1.33;;
19446;SDS011;9862;49.462;11.054;2023-11-19T12:29:07;3.47;;;1.27;;
19446;SDS011;9862;49.462;11.054;2023-11-19T12:31:34;2.33;;;1.00;;
19446;SDS011;9862;49.462;11.054;2023-11-19T12:34:05;1.80;;;0.90;;
19446;SDS011;9862;49.462;11.054;2023-11-19T12:36:34;1.95;;;1.02;;
19446;SDS011;9862;49.462;11.054;2023-11-19T12:39:02;1.17;;;0.98;;
19446;SDS011;9862;49.462;11.054;2023-11-19T12:41:30;3.30;;;1.05;;
19446;SDS011;9862;49.462;11.054;2023-11-19T12:44:10;2.40;;;1.10;;
19446;SDS011;9862;49.462;11.054;2023-11-19T12:46:38;4.15;;;1.42;;
19446;SDS011;9862;49.462;11.054;2023-11-19T12:49:04;2.67;;;0.90;;
19446;SDS011;9862;49.462;11.054;2023-11-19T12:51:32;1.38;;;0.90;;
19446;SDS011;9862;49.462;11.054;2023-11-19T12:53:59;1.90;;;0.98;;
19446;SDS011;9862;49.462;11.054;2023-11-19T12:56:26;1.85;;;1.02;;
19446;SDS011;9862;49.462;11.054;2023-11-19T12:58:53;1.90;;;1.00;;
19446;SDS011;9862;49.462;11.054;2023-11-19T13:01:21;0.98;;;0.85;;
19446;SDS011;9862;49.462;11.054;2023-11-19T13:03:50;3.55;;;0.93;;
19446;SDS011;9862;49.462;11.054;2023-11-19T13:06:16;1.83;;;0.85;;
19446;SDS011;9862;49.462;11.054;2023-11-19T13:08:47;1.67;;;0.80;;
19446;SDS011;9862;49.462;11.054;2023-11-19T13:11:29;5.55;;;1.05;;
19446;SDS011;9862;49.462;11.054;2023-11-19T13:13:57;2.58;;;0.90;;
19446;SDS011;9862;49.462;11.054;2023-11-19T13:16:27;1.75;;;0.95;;
19446;SDS011;9862;49.462;11.054;2023-11-19T13:18:54;2.00;;;0.82;;
19446;SDS011;9862;49.462;11.054;2023-11-19T13:21:23;1.30;;;0.82;;
19446;SDS011;9862;49.462;11.054;2023-11-19T13:23:50;1.52;;;0.90;;
19446;SDS011;9862;49.462;11.054;2023-11-19T13:26:17;3.92;;;0.80;;
19446;SDS011;9862;49.462;11.054;2023-11-19T13:28:43;2.40;;;0.90;;
19446;SDS011;9862;49.462;11.054;2023-11-19T13:31:11;0.98;;;0.70;;
19446;SDS011;9862;49.462;11.054;2023-11-19T13:33:40;1.02;;;0.70;;
19446;SDS011;9862;49.462;11.054;2023-11-19T13:36:08;5.18;;;0.82;;
19446;SDS011;9862;49.462;11.054;2023-11-19T13:38:35;4.20;;;1.00;;
19446;SDS011;9862;49.462;11.054;2023-11-19T13:41:03;4.60;;;0.88;;
19446;SDS011;9862;49.462;11.054;2023-11-19T13:43:31;1.65;;;0.75;;
19446;SDS011;9862;49.462;11.054;2023-11-19T13:45:59;4.38;;;0.90;;
19446;SDS011;9862;49.462;11.054;2023-11-19T13:48:27;2.90;;;0.75;;
19446;SDS011;9862;49.462;11.054;2023-11-19T13:50:56;3.58;;;0.90;;
19446;SDS011;9862;49.462;11.054;2023-11-19T13:53:23;3.05;;;0.80;;
19446;SDS011;9862;49.462;11.054;2023-11-19T13:55:51;1.23;;;0.88;;
19446;SDS011;9862;49.462;11.054;2023-11-19T13:58:18;2.40;;;0.93;;
19446;SDS011;9862;49.462;11.054;2023-11-19T14:00:45;1.08;;;0.82;;
19446;SDS011;9862;49.462;11.054;2023-11-19T14:03:12;2.50;;;1.10;;
19446;SDS011;9862;49.462;11.054;2023-11-19T14:05:39;1.88;;;1.02;;
19446;SDS011;9862;49.462;11.054;2023-11-19T14:08:08;2.83;;;0.90;;
19446;SDS011;9862;49.462;11.054;2023-11-19T14:10:37;4.15;;;1.00;;
19446;SDS011;9862;49.462;11.054;2023-11-19T14:13:05;0.80;;;0.80;;
19446;SDS011;9862;49.462;11.054;2023-11-19T14:15:32;2.78;;;0.88;;
19446;SDS011;9862;49.462;11.054;2023-11-19T14:18:00;2.10;;;0.90;;
19446;SDS011;9862;49.462;11.054;2023-11-19T14:20:29;2.42;;;0.85;;
19446;SDS011;9862;49.462;11.054;2023-11-19T14:22:56;0.95;;;0.70;;
19446;SDS011;9862;49.462;11.054;2023-11-19T14:25:24;2.67;;;0.98;;
19446;SDS011;9862;49.462;11.054;2023-11-19T14:27:51;1.38;;;0.55;;
19446;SDS011;9862;49.462;11.054;2023-11-19T14:30:17;1.63;;;0.70;;
19446;SDS011;9862;49.462;11.054;2023-11-19T14:32:44;2.75;;;0.65;;
19446;SDS011;9862;49.462;11.054;2023-11-19T14:35:12;3.83;;;0.82;;
19446;SDS011;9862;49.462;11.054;2023-11-19T14:37:38;1.75;;;1.25;;
19446;SDS011;9862;49.462;11.054;2023-11-19T14:40:06;1.85;;;0.80;;
19446;SDS011;9862;49.462;11.054;2023-11-19T14:42:38;2.03;;;1.35;;
19446;SDS011;9862;49.462;11.054;2023-11-19T14:45:05;4.72;;;2.63;;
19446;SDS011;9862;49.462;11.054;2023-11-19T14:47:34;5.20;;;1.55;;
19446;SDS011;9862;49.462;11.054;2023-11-19T14:50:01;3.30;;;1.55;;
19446;SDS011;9862;49.462;11.054;2023-11-19T14:52:29;3.65;;;1.75;;